createdAt,value
2023-03-28T00:01:39.676Z,1.80
2023-03-28T00:04:06.397Z,1.73
2023-03-28T00:06:33.249Z,1.80
2023-03-28T00:08:59.973Z,1.90
2023-03-28T00:11:26.608Z,1.90
2023-03-28T00:14:00.867Z,2.45
2023-03-28T00:16:33.506Z,2.20
2023-03-28T00:19:01.415Z,2.08
2023-03-28T00:21:30.813Z,2.00
2023-03-28T00:24:02.250Z,2.13
2023-03-28T00:26:32.961Z,2.40
2023-03-28T00:29:01.564Z,2.35
2023-03-28T00:31:29.729Z,2.08
2023-03-28T00:33:56.520Z,2.08
2023-03-28T00:36:26.417Z,2.25
2023-03-28T00:38:53.705Z,2.40
2023-03-28T00:41:22.185Z,2.03
2023-03-28T00:43:54.030Z,2.05
2023-03-28T00:46:30.000Z,2.42
2023-03-28T00:49:00.420Z,2.30
2023-03-28T00:53:57.933Z,2.30
2023-03-28T00:58:51.882Z,2.67
2023-03-28T01:01:19.942Z,3.78
2023-03-28T01:03:56.154Z,3.80
2023-03-28T01:06:24.726Z,2.97
2023-03-28T01:08:52.377Z,2.92
2023-03-28T01:11:20.657Z,3.88
2023-03-28T01:13:52.066Z,3.58
2023-03-28T01:16:24.997Z,3.40
2023-03-28T01:18:52.808Z,2.53
2023-03-28T01:21:28.429Z,3.03
2023-03-28T01:24:10.950Z,2.85
2023-03-28T01:26:53.243Z,2.55
2023-03-28T01:29:45.569Z,2.67
2023-03-28T01:32:29.364Z,3.15
2023-03-28T01:35:23.191Z,2.55
2023-03-28T01:38:01.377Z,2.67
2023-03-28T01:40:41.197Z,2.65
2023-03-28T01:43:42.026Z,2.47
2023-03-28T01:46:11.781Z,2.90
2023-03-28T01:49:00.171Z,2.78
2023-03-28T01:51:55.840Z,2.22
2023-03-28T01:54:35.357Z,2.70
2023-03-28T01:57:30.277Z,2.63
2023-03-28T02:00:19.956Z,2.40
2023-03-28T02:03:11.770Z,2.60
2023-03-28T02:08:17.521Z,2.80
2023-03-28T02:10:49.679Z,2.90
2023-03-28T02:13:39.908Z,2.80
2023-03-28T02:19:26.357Z,2.90
2023-03-28T02:22:29.986Z,2.92
2023-03-28T02:24:59.774Z,3.10
2023-03-28T02:27:39.381Z,3.13
2023-03-28T02:33:02.240Z,2.60
2023-03-28T02:35:54.608Z,2.88
2023-03-28T02:38:56.782Z,3.00
2023-03-28T02:41:36.025Z,3.10
2023-03-28T02:44:33.362Z,2.67
2023-03-28T02:47:19.905Z,3.22
2023-03-28T02:50:28.360Z,3.05
2023-03-28T02:53:01.262Z,3.25
2023-03-28T02:55:57.900Z,3.25
2023-03-28T02:58:47.592Z,3.38
2023-03-28T03:01:14.586Z,3.78
2023-03-28T03:03:43.618Z,3.80
2023-03-28T03:06:10.447Z,3.63
2023-03-28T03:08:37.086Z,3.70
2023-03-28T03:11:03.734Z,3.75
2023-03-28T03:13:30.545Z,3.65
2023-03-28T03:16:02.006Z,3.00
2023-03-28T03:18:30.420Z,3.28
2023-03-28T03:20:57.081Z,3.42
2023-03-28T03:23:23.797Z,3.47
2023-03-28T03:25:54.439Z,3.88
2023-03-28T03:28:25.560Z,3.65
2023-03-28T03:30:52.919Z,3.28
2023-03-28T03:33:37.998Z,3.47
2023-03-28T03:36:06.431Z,3.40
2023-03-28T03:38:34.103Z,3.42
2023-03-28T03:41:02.919Z,3.33
2023-03-28T03:43:29.678Z,3.33
2023-03-28T03:45:56.456Z,3.42
2023-03-28T03:48:23.463Z,3.50
2023-03-28T03:50:56.318Z,3.70
2023-03-28T03:53:22.919Z,4.15
2023-03-28T03:56:03.274Z,3.55
2023-03-28T03:58:48.011Z,3.50
2023-03-28T04:01:14.718Z,4.22
2023-03-28T04:03:42.487Z,4.32
2023-03-28T04:06:12.332Z,4.63
2023-03-28T04:08:38.981Z,5.00
2023-03-28T04:11:09.413Z,5.15
2023-03-28T04:13:41.088Z,5.72
2023-03-28T04:16:08.327Z,6.00
2023-03-28T04:18:50.479Z,5.10
2023-03-28T04:21:22.019Z,4.85
2023-03-28T04:23:48.734Z,5.53
2023-03-28T04:26:29.331Z,5.25
2023-03-28T04:29:03.993Z,5.57
2023-03-28T04:31:35.496Z,4.72
2023-03-28T04:34:25.642Z,4.40
2023-03-28T04:37:22.477Z,4.38
2023-03-28T04:39:54.079Z,4.57
2023-03-28T04:42:56.414Z,5.18
2023-03-28T04:45:27.874Z,4.32
2023-03-28T04:47:59.875Z,5.80
2023-03-28T04:50:26.482Z,5.00
2023-03-28T04:52:53.129Z,6.15
2023-03-28T04:55:20.116Z,8.15
2023-03-28T04:57:48.708Z,5.65
2023-03-28T05:00:19.272Z,6.22
2023-03-28T05:03:05.129Z,7.40
2023-03-28T05:05:43.016Z,9.43
2023-03-28T05:08:13.941Z,10.25
2023-03-28T05:10:40.825Z,10.00
2023-03-28T05:13:09.429Z,12.25
2023-03-28T05:15:43.040Z,10.07
2023-03-28T05:18:34.539Z,7.20
2023-03-28T05:21:01.455Z,6.07
2023-03-28T05:23:28.146Z,7.60
2023-03-28T05:25:54.978Z,6.78
2023-03-28T05:28:22.148Z,6.15
2023-03-28T05:30:51.523Z,6.03
2023-03-28T05:33:18.418Z,5.95
2023-03-28T05:35:46.428Z,5.75
2023-03-28T05:38:14.254Z,5.80
2023-03-28T05:40:41.749Z,6.50
2023-03-28T05:43:08.485Z,8.23
2023-03-28T05:45:35.990Z,7.40
2023-03-28T05:48:22.885Z,7.10
2023-03-28T05:50:50.500Z,6.18
2023-03-28T05:53:17.262Z,5.82
2023-03-28T05:55:43.910Z,5.68
2023-03-28T05:58:11.021Z,5.28
2023-03-28T06:00:41.901Z,6.10
2023-03-28T06:03:09.603Z,8.60
2023-03-28T06:05:44.397Z,7.68
2023-03-28T06:08:18.901Z,6.57
2023-03-28T06:10:46.487Z,6.22
2023-03-28T06:13:20.603Z,5.50
2023-03-28T06:15:47.972Z,5.50
2023-03-28T06:18:16.838Z,6.28
2023-03-28T06:20:45.977Z,6.50
2023-03-28T06:23:14.021Z,6.15
2023-03-28T06:25:41.417Z,5.90
2023-03-28T06:28:08.174Z,6.18
2023-03-28T06:30:56.027Z,5.38
2023-03-28T06:33:22.673Z,5.47
2023-03-28T06:35:49.404Z,5.05
2023-03-28T06:38:16.075Z,5.10
2023-03-28T06:40:49.117Z,4.80
2023-03-28T06:43:15.943Z,4.95
2023-03-28T06:45:47.567Z,4.32
2023-03-28T06:48:16.060Z,5.57
2023-03-28T06:51:01.533Z,5.15
2023-03-28T06:53:28.275Z,4.30
2023-03-28T06:55:55.826Z,4.38
2023-03-28T06:58:23.907Z,5.57
2023-03-28T07:01:01.638Z,5.70
2023-03-28T07:03:31.664Z,5.03
2023-03-28T07:05:58.604Z,5.03
2023-03-28T07:08:25.430Z,4.97
2023-03-28T07:10:52.167Z,4.30
2023-03-28T07:13:18.758Z,4.32
2023-03-28T07:16:08.291Z,3.80
2023-03-28T07:18:35.160Z,3.30
2023-03-28T07:21:07.335Z,3.40
2023-03-28T07:23:34.162Z,3.50
2023-03-28T07:26:02.310Z,3.42
2023-03-28T07:28:29.557Z,3.30
2023-03-28T07:30:56.476Z,3.20
2023-03-28T07:33:29.068Z,3.47
2023-03-28T07:36:12.103Z,3.17
2023-03-28T07:38:39.195Z,3.25
2023-03-28T07:41:06.261Z,3.63
2023-03-28T07:43:32.968Z,3.53
2023-03-28T07:46:02.122Z,3.10
2023-03-28T07:48:30.823Z,3.15
2023-03-28T07:50:58.009Z,3.72
2023-03-28T07:53:25.958Z,3.25
2023-03-28T07:55:55.723Z,3.33
2023-03-28T07:58:29.786Z,2.60
2023-03-28T08:01:05.939Z,3.10
2023-03-28T08:03:36.220Z,2.20
2023-03-28T08:06:20.100Z,2.55
2023-03-28T08:08:51.883Z,3.10
2023-03-28T08:11:28.564Z,2.63
2023-03-28T08:13:55.426Z,2.50
2023-03-28T08:16:24.042Z,2.50
2023-03-28T08:19:03.553Z,1.92
2023-03-28T08:21:43.460Z,2.42
2023-03-28T08:24:14.078Z,2.22
2023-03-28T08:26:52.961Z,2.00
2023-03-28T08:29:20.628Z,1.85
2023-03-28T08:31:48.005Z,2.25
2023-03-28T08:34:15.618Z,2.33
2023-03-28T08:36:44.329Z,1.80
2023-03-28T08:39:24.247Z,1.57
2023-03-28T08:42:09.199Z,1.80
2023-03-28T08:45:00.879Z,1.67
2023-03-28T08:47:32.258Z,2.15
2023-03-28T08:50:13.528Z,1.50
2023-03-28T08:52:40.941Z,1.98
2023-03-28T08:55:24.474Z,2.13
2023-03-28T08:57:53.107Z,2.10
2023-03-28T09:00:31.892Z,1.90
2023-03-28T09:02:59.262Z,2.10
2023-03-28T09:05:50.873Z,2.83
2023-03-28T09:08:43.397Z,2.17
2023-03-28T09:11:40.519Z,2.40
2023-03-28T09:14:13.754Z,2.15
2023-03-28T09:16:59.283Z,2.15
2023-03-28T09:19:47.874Z,2.00
2023-03-28T09:22:43.718Z,2.15
2023-03-28T09:25:17.240Z,1.85
2023-03-28T09:27:53.603Z,2.17
2023-03-28T09:30:43.003Z,2.28
2023-03-28T09:33:38.477Z,2.45
2023-03-28T09:36:21.763Z,2.15
2023-03-28T09:38:52.390Z,2.03
2023-03-28T09:41:31.047Z,2.50
2023-03-28T09:44:18.821Z,1.80
2023-03-28T09:47:08.758Z,1.50
2023-03-28T09:49:41.623Z,1.48
2023-03-28T09:52:17.899Z,1.60
2023-03-28T09:54:45.346Z,2.67
2023-03-28T09:57:12.352Z,1.90
2023-03-28T10:00:08.192Z,2.20
2023-03-28T10:02:52.811Z,1.85
2023-03-28T10:05:35.606Z,1.80
2023-03-28T10:08:25.679Z,2.38
2023-03-28T10:11:17.619Z,2.15
2023-03-28T10:13:50.363Z,1.98
2023-03-28T10:16:27.156Z,2.08
2023-03-28T10:19:33.255Z,1.95
2023-03-28T10:22:12.113Z,1.80
2023-03-28T10:24:46.076Z,1.70
2023-03-28T10:27:32.715Z,1.60
2023-03-28T10:30:12.251Z,2.40
2023-03-28T10:32:39.149Z,2.30
2023-03-28T10:35:25.070Z,2.28
2023-03-28T10:38:05.273Z,1.52
2023-03-28T10:40:53.274Z,1.73
2023-03-28T10:43:37.091Z,1.70
2023-03-28T10:46:13.638Z,2.20
2023-03-28T10:49:05.000Z,2.03
2023-03-28T10:51:32.835Z,1.40
2023-03-28T10:54:28.868Z,1.90
2023-03-28T10:56:58.819Z,1.70
2023-03-28T10:59:47.968Z,1.60
2023-03-28T11:02:19.390Z,1.60
2023-03-28T11:04:55.857Z,1.95
2023-03-28T11:07:50.349Z,1.70
2023-03-28T11:10:53.514Z,1.90
2023-03-28T11:13:49.077Z,2.42
2023-03-28T11:16:34.515Z,1.50
2023-03-28T11:19:22.350Z,2.13
2023-03-28T11:21:56.617Z,1.95
2023-03-28T11:24:23.146Z,1.83
2023-03-28T11:27:21.508Z,1.70
2023-03-28T11:30:00.294Z,1.67
2023-03-28T11:32:46.577Z,2.00
2023-03-28T11:35:27.171Z,1.58
2023-03-28T11:38:09.133Z,1.60
2023-03-28T11:40:58.514Z,1.55
2023-03-28T11:43:57.406Z,1.75
2023-03-28T11:46:38.026Z,1.85
2023-03-28T11:49:22.501Z,1.73
2023-03-28T11:51:55.619Z,1.55
2023-03-28T11:54:29.266Z,1.60
2023-03-28T11:57:20.995Z,1.70
2023-03-28T12:00:23.090Z,1.52
2023-03-28T12:03:30.280Z,1.52
2023-03-28T12:06:05.384Z,1.70
2023-03-28T12:08:46.412Z,1.67
2023-03-28T12:11:20.455Z,1.50
2023-03-28T12:14:29.338Z,1.48
2023-03-28T12:17:04.204Z,1.45
2023-03-28T12:19:39.743Z,1.52
2023-03-28T12:22:12.056Z,1.60
2023-03-28T12:24:58.977Z,1.15
2023-03-28T12:27:57.633Z,1.50
2023-03-28T12:30:40.735Z,1.60
2023-03-28T12:36:39.212Z,1.40
2023-03-28T12:39:25.650Z,1.33
2023-03-28T12:41:54.423Z,1.35
2023-03-28T12:44:25.120Z,1.40
2023-03-28T12:47:00.888Z,1.35
2023-03-28T12:49:42.122Z,2.03
2023-03-28T12:52:19.382Z,2.00
2023-03-28T12:54:54.828Z,1.65
2023-03-28T12:57:40.822Z,1.33
2023-03-28T13:00:31.270Z,1.50
2023-03-28T13:03:37.824Z,1.60
2023-03-28T13:06:12.083Z,1.40
2023-03-28T13:09:01.451Z,1.40
2023-03-28T13:11:40.466Z,1.67
2023-03-28T13:14:39.382Z,1.20
2023-03-28T13:17:23.411Z,1.63
2023-03-28T13:20:09.298Z,1.27
2023-03-28T13:22:57.861Z,1.20
2023-03-28T13:25:32.418Z,1.20
2023-03-28T13:28:00.885Z,1.30
2023-03-28T13:30:31.401Z,1.70
2023-03-28T13:35:36.489Z,1.58
2023-03-28T13:38:32.078Z,1.40
2023-03-28T13:41:06.908Z,1.60
2023-03-28T13:43:43.809Z,1.42
2023-03-28T13:46:17.228Z,1.60
2023-03-28T13:48:51.642Z,1.80
2023-03-28T13:51:24.665Z,1.70
2023-03-28T13:53:51.316Z,1.48
2023-03-28T13:56:23.541Z,1.30
2023-03-28T13:58:55.264Z,1.60
2023-03-28T14:01:24.678Z,1.40
2023-03-28T14:03:52.411Z,1.63
2023-03-28T14:06:27.577Z,1.58
2023-03-28T14:08:56.384Z,1.50
2023-03-28T14:11:34.692Z,1.63
2023-03-28T14:14:13.034Z,1.52
2023-03-28T14:16:42.453Z,1.67
2023-03-28T14:19:16.394Z,1.67
2023-03-28T14:21:43.484Z,1.50
2023-03-28T14:24:18.551Z,1.52
2023-03-28T14:26:46.897Z,1.70
2023-03-28T14:29:17.390Z,1.48
2023-03-28T14:31:46.850Z,1.73
2023-03-28T14:34:27.031Z,1.50
2023-03-28T14:36:59.472Z,1.73
2023-03-28T14:39:34.881Z,1.30
2023-03-28T14:42:04.885Z,1.40
2023-03-28T14:44:36.536Z,1.30
2023-03-28T14:47:03.715Z,1.40
2023-03-28T14:49:30.682Z,1.50
2023-03-28T14:51:59.441Z,3.08
2023-03-28T14:54:37.731Z,3.13
2023-03-28T14:57:05.695Z,1.85
2023-03-28T14:59:37.131Z,1.70
2023-03-28T15:02:05.612Z,2.67
2023-03-28T15:04:32.897Z,1.73
2023-03-28T15:06:59.583Z,1.50
2023-03-28T15:09:33.627Z,2.08
2023-03-28T15:12:06.668Z,2.00
2023-03-28T15:14:44.469Z,1.63
2023-03-28T15:17:18.850Z,1.90
2023-03-28T15:19:46.818Z,1.50
2023-03-28T15:22:15.513Z,1.75
2023-03-28T15:24:42.739Z,1.70
2023-03-28T15:27:27.035Z,1.85
2023-03-28T15:29:54.001Z,1.58
2023-03-28T15:32:20.848Z,1.70
2023-03-28T15:34:48.806Z,2.35
2023-03-28T15:37:19.820Z,2.70
2023-03-28T15:39:50.925Z,2.15
2023-03-28T15:42:28.948Z,1.67
2023-03-28T15:44:58.452Z,1.58
2023-03-28T15:47:29.513Z,1.87
2023-03-28T15:50:02.884Z,1.85
2023-03-28T15:52:30.881Z,1.92
2023-03-28T15:55:00.026Z,1.58
2023-03-28T15:57:33.154Z,2.70
2023-03-28T16:00:00.833Z,2.90
2023-03-28T16:02:27.731Z,2.13
2023-03-28T16:05:01.533Z,2.50
2023-03-28T16:07:54.285Z,2.20
2023-03-28T16:10:22.967Z,1.70
2023-03-28T16:13:14.230Z,1.52
2023-03-28T16:16:05.737Z,2.05
2023-03-28T16:18:43.939Z,1.90
2023-03-28T16:21:11.487Z,1.95
2023-03-28T16:23:38.344Z,1.90
2023-03-28T16:26:06.740Z,1.50
2023-03-28T16:28:33.535Z,1.70
2023-03-28T16:31:00.352Z,1.60
2023-03-28T16:33:27.027Z,1.58
2023-03-28T16:35:54.196Z,1.25
2023-03-28T16:38:21.899Z,1.80
2023-03-28T16:40:48.689Z,1.85
2023-03-28T16:43:16.421Z,1.90
2023-03-28T16:45:49.691Z,1.60
2023-03-28T16:48:16.914Z,1.90
2023-03-28T16:51:06.696Z,1.58
2023-03-28T16:53:37.609Z,1.15
2023-03-28T16:56:07.097Z,1.80
2023-03-28T16:58:34.106Z,1.70
2023-03-28T17:01:13.984Z,1.75
2023-03-28T17:03:41.211Z,1.40
2023-03-28T17:06:09.234Z,1.60
2023-03-28T17:08:36.414Z,1.88
2023-03-28T17:11:06.780Z,1.75
2023-03-28T17:13:34.521Z,1.95
2023-03-28T17:16:02.236Z,2.08
2023-03-28T17:18:32.869Z,1.70
2023-03-28T17:21:03.338Z,1.80
2023-03-28T17:23:30.771Z,1.83
2023-03-28T17:25:57.610Z,2.05
2023-03-28T17:28:25.211Z,1.88
2023-03-28T17:30:52.321Z,1.80
2023-03-28T17:33:19.486Z,1.80
2023-03-28T17:35:47.683Z,1.90
2023-03-28T17:38:14.671Z,1.55
2023-03-28T17:40:48.113Z,1.70
2023-03-28T17:43:14.945Z,1.70
2023-03-28T17:45:41.564Z,1.75
2023-03-28T17:48:08.252Z,1.70
2023-03-28T17:50:34.861Z,1.77
2023-03-28T17:53:01.494Z,1.58
2023-03-28T17:55:28.632Z,1.77
2023-03-28T17:57:55.564Z,1.90
2023-03-28T18:00:22.384Z,1.73
2023-03-28T18:02:50.675Z,1.45
2023-03-28T18:05:48.256Z,1.90
2023-03-28T18:08:15.682Z,1.42
2023-03-28T18:10:42.854Z,1.75
2023-03-28T18:13:09.617Z,1.85
2023-03-28T18:15:36.294Z,1.60
2023-03-28T18:18:03.535Z,2.10
2023-03-28T18:20:30.259Z,1.80
2023-03-28T18:22:56.906Z,2.00
2023-03-28T18:25:23.676Z,1.75
2023-03-28T18:27:50.589Z,1.98
2023-03-28T18:30:17.495Z,1.70
2023-03-28T18:32:44.203Z,1.65
2023-03-28T18:35:11.454Z,1.60
2023-03-28T18:37:38.102Z,1.88
2023-03-28T18:40:07.583Z,2.10
2023-03-28T18:42:36.396Z,1.80
2023-03-28T18:45:04.054Z,1.90
2023-03-28T18:47:30.877Z,1.73
2023-03-28T18:49:58.413Z,1.58
2023-03-28T18:52:28.354Z,1.40
2023-03-28T18:54:56.227Z,1.70
2023-03-28T18:57:23.902Z,1.80
2023-03-28T18:59:55.418Z,1.70
2023-03-28T19:02:22.268Z,3.10
2023-03-28T19:04:49.274Z,3.50
2023-03-28T19:07:17.253Z,2.20
2023-03-28T19:09:44.313Z,1.80
2023-03-28T19:12:12.214Z,2.03
2023-03-28T19:14:39.100Z,1.73
2023-03-28T19:17:06.004Z,1.70
2023-03-28T19:19:37.462Z,2.17
2023-03-28T19:22:06.252Z,1.58
2023-03-28T19:24:33.125Z,1.88
2023-03-28T19:27:00.478Z,1.70
2023-03-28T19:29:29.060Z,1.52
2023-03-28T19:31:55.956Z,1.50
2023-03-28T19:34:22.682Z,1.92
2023-03-28T19:36:49.292Z,1.85
2023-03-28T19:39:16.072Z,1.77
2023-03-28T19:41:42.716Z,3.65
2023-03-28T19:44:09.484Z,3.90
2023-03-28T19:46:38.844Z,3.17
2023-03-28T19:49:06.291Z,2.50
2023-03-28T19:51:33.554Z,2.60
2023-03-28T19:54:00.254Z,3.15
2023-03-28T19:56:26.975Z,3.42
2023-03-28T19:58:54.903Z,3.17
2023-03-28T20:01:21.749Z,1.80
2023-03-28T20:03:52.321Z,2.30
2023-03-28T20:06:20.417Z,2.17
2023-03-28T20:08:47.161Z,2.80
2023-03-28T20:11:14.635Z,2.80
2023-03-28T20:13:41.387Z,2.45
2023-03-28T20:16:09.197Z,1.90
2023-03-28T20:18:36.996Z,2.05
2023-03-28T20:21:09.964Z,2.75
2023-03-28T20:23:36.771Z,2.88
2023-03-28T20:26:15.770Z,2.08
2023-03-28T20:28:42.525Z,2.30
2023-03-28T20:31:11.581Z,1.92
2023-03-28T20:33:38.459Z,2.33
2023-03-28T20:36:06.178Z,2.08
2023-03-28T20:38:33.003Z,1.60
2023-03-28T20:40:59.835Z,1.65
2023-03-28T20:43:29.400Z,1.67
2023-03-28T20:45:57.896Z,1.60
2023-03-28T20:48:35.916Z,1.80
2023-03-28T20:51:13.836Z,1.42
2023-03-28T20:53:45.062Z,1.40
2023-03-28T20:56:13.301Z,1.40
2023-03-28T20:58:40.588Z,1.38
2023-03-28T21:01:08.740Z,1.33
2023-03-28T21:03:49.156Z,1.42
2023-03-28T21:08:45.864Z,1.50
2023-03-28T21:11:16.970Z,2.00
2023-03-28T21:13:43.656Z,1.85
2023-03-28T21:16:11.507Z,1.98
2023-03-28T21:18:38.274Z,1.90
2023-03-28T21:21:07.195Z,2.20
2023-03-28T21:23:34.636Z,1.92
2023-03-28T21:26:01.527Z,1.75
2023-03-28T21:28:28.210Z,1.98
2023-03-28T21:31:02.955Z,2.22
2023-03-28T21:33:30.056Z,2.00
2023-03-28T21:35:58.791Z,2.17
2023-03-28T21:38:27.257Z,2.28
2023-03-28T21:40:54.206Z,1.95
2023-03-28T21:43:21.202Z,1.90
2023-03-28T21:45:47.882Z,2.08
2023-03-28T21:48:15.709Z,2.35
2023-03-28T21:50:48.273Z,2.22
2023-03-28T21:53:14.843Z,1.95
2023-03-28T21:55:42.068Z,1.88
2023-03-28T21:58:08.640Z,2.13
2023-03-28T22:00:35.362Z,2.00
2023-03-28T22:03:02.091Z,1.95
2023-03-28T22:05:29.987Z,1.90
2023-03-28T22:07:57.359Z,1.65
2023-03-28T22:10:26.716Z,2.33
2023-03-28T22:12:54.113Z,2.03
2023-03-28T22:15:20.723Z,1.80
2023-03-28T22:17:47.389Z,2.25
2023-03-28T22:20:14.763Z,2.00
2023-03-28T22:22:44.657Z,1.95
2023-03-28T22:25:12.596Z,2.20
2023-03-28T22:27:39.666Z,1.77
2023-03-28T22:30:09.674Z,1.95
2023-03-28T22:32:38.334Z,1.95
2023-03-28T22:35:05.851Z,1.90
2023-03-28T22:37:33.127Z,2.40
2023-03-28T22:40:00.349Z,2.13
2023-03-28T22:42:27.484Z,2.38
2023-03-28T22:44:54.093Z,2.00
2023-03-28T22:47:20.670Z,2.50
2023-03-28T22:49:47.308Z,2.50
2023-03-28T22:52:13.918Z,2.33
2023-03-28T22:54:42.583Z,2.50
2023-03-28T22:57:09.353Z,2.33
2023-03-28T22:59:36.314Z,2.08
2023-03-28T23:02:03.283Z,2.70
2023-03-28T23:04:32.910Z,2.40
2023-03-28T23:06:59.498Z,2.50
2023-03-28T23:09:27.828Z,2.10
2023-03-28T23:11:54.995Z,2.25
2023-03-28T23:14:23.243Z,2.80
2023-03-28T23:16:50.120Z,2.35
2023-03-28T23:19:16.701Z,2.08
2023-03-28T23:21:43.910Z,2.47
2023-03-28T23:24:11.775Z,2.60
2023-03-28T23:26:38.336Z,2.17
2023-03-28T23:29:05.175Z,2.60
2023-03-28T23:31:31.933Z,2.60
2023-03-28T23:33:58.690Z,2.58
2023-03-28T23:36:26.017Z,2.67
2023-03-28T23:38:52.989Z,2.95
2023-03-28T23:41:19.630Z,2.97
2023-03-28T23:43:46.223Z,2.63
2023-03-28T23:46:12.923Z,2.58
2023-03-28T23:48:39.663Z,2.95
2023-03-28T23:51:06.576Z,2.85
2023-03-28T23:53:33.183Z,3.15
2023-03-28T23:55:59.876Z,2.75
2023-03-28T23:58:26.532Z,3.10
